sensor_id;sensor_type;location;lat;lon;timestamp;temperature;humidity
20380;DHT22;10349;48.666;8.948;2023-04-03T00:00:59;2.40;99.90
20380;DHT22;10349;48.666;8.948;2023-04-03T00:03:25;2.30;99.90
20380;DHT22;10349;48.666;8.948;2023-04-03T00:05:50;2.40;99.90
20380;DHT22;10349;48.666;8.948;2023-04-03T00:08:16;2.40;99.90
20380;DHT22;10349;48.666;8.948;2023-04-03T00:10:42;2.40;99.90
20380;DHT22;10349;48.666;8.948;2023-04-03T00:13:08;2.40;99.90
20380;DHT22;10349;48.666;8.948;2023-04-03T00:15:35;2.40;99.90
20380;DHT22;10349;48.666;8.948;2023-04-03T00:18:03;2.50;99.90
20380;DHT22;10349;48.666;8.948;2023-04-03T00:20:30;2.40;99.90
20380;DHT22;10349;48.666;8.948;2023-04-03T00:22:56;2.40;99.90
20380;DHT22;10349;48.666;8.948;2023-04-03T00:25:22;2.40;99.90
20380;DHT22;10349;48.666;8.948;2023-04-03T00:27:48;2.40;99.90
20380;DHT22;10349;48.666;8.948;2023-04-03T00:30:17;2.40;99.90
20380;DHT22;10349;48.666;8.948;2023-04-03T00:32:43;2.40;99.90
20380;DHT22;10349;48.666;8.948;2023-04-03T00:35:10;2.40;99.90
20380;DHT22;10349;48.666;8.948;2023-04-03T00:37:36;2.40;99.90
20380;DHT22;10349;48.666;8.948;2023-04-03T00:40:02;2.30;99.90
20380;DHT22;10349;48.666;8.948;2023-04-03T00:42:28;2.40;99.90
20380;DHT22;10349;48.666;8.948;2023-04-03T00:47:27;2.30;99.90
20380;DHT22;10349;48.666;8.948;2023-04-03T00:49:53;2.20;99.90
20380;DHT22;10349;48.666;8.948;2023-04-03T00:52:22;2.20;99.90
20380;DHT22;10349;48.666;8.948;2023-04-03T00:54:50;2.30;99.90
20380;DHT22;10349;48.666;8.948;2023-04-03T00:57:17;2.30;99.90
20380;DHT22;10349;48.666;8.948;2023-04-03T00:59:46;2.30;99.90
20380;DHT22;10349;48.666;8.948;2023-04-03T01:02:14;2.30;99.90
20380;DHT22;10349;48.666;8.948;2023-04-03T01:04:42;2.30;99.90
20380;DHT22;10349;48.666;8.948;2023-04-03T01:07:12;2.20;99.90
20380;DHT22;10349;48.666;8.948;2023-04-03T01:09:40;2.20;99.90
20380;DHT22;10349;48.666;8.948;2023-04-03T01:12:24;2.20;99.90
20380;DHT22;10349;48.666;8.948;2023-04-03T01:14:56;2.20;99.90
20380;DHT22;10349;48.666;8.948;2023-04-03T01:17:30;2.10;99.90
20380;DHT22;10349;48.666;8.948;2023-04-03T01:25:48;2.10;99.90
20380;DHT22;10349;48.666;8.948;2023-04-03T01:28:20;2.10;99.90
20380;DHT22;10349;48.666;8.948;2023-04-03T01:30:58;2.00;99.90
20380;DHT22;10349;48.666;8.948;2023-04-03T01:33:24;2.00;99.90
20380;DHT22;10349;48.666;8.948;2023-04-03T01:35:50;2.00;99.90
20380;DHT22;10349;48.666;8.948;2023-04-03T01:38:16;2.00;99.90
20380;DHT22;10349;48.666;8.948;2023-04-03T01:40:42;2.10;99.90
20380;DHT22;10349;48.666;8.948;2023-04-03T01:43:07;2.00;99.90
20380;DHT22;10349;48.666;8.948;2023-04-03T01:45:33;2.00;99.90
20380;DHT22;10349;48.666;8.948;2023-04-03T01:47:59;2.00;99.90
20380;DHT22;10349;48.666;8.948;2023-04-03T01:50:25;2.00;99.90
20380;DHT22;10349;48.666;8.948;2023-04-03T01:52:52;2.00;99.90
20380;DHT22;10349;48.666;8.948;2023-04-03T01:55:18;2.00;99.90
20380;DHT22;10349;48.666;8.948;2023-04-03T01:57:43;2.00;99.90
20380;DHT22;10349;48.666;8.948;2023-04-03T02:00:10;1.90;99.90
20380;DHT22;10349;48.666;8.948;2023-04-03T02:02:41;1.90;99.90
20380;DHT22;10349;48.666;8.948;2023-04-03T02:05:07;1.90;99.90
20380;DHT22;10349;48.666;8.948;2023-04-03T02:07:33;1.90;99.90
20380;DHT22;10349;48.666;8.948;2023-04-03T02:09:59;1.90;99.90
20380;DHT22;10349;48.666;8.948;2023-04-03T02:12:25;1.90;99.90
20380;DHT22;10349;48.666;8.948;2023-04-03T02:14:50;1.90;99.90
20380;DHT22;10349;48.666;8.948;2023-04-03T02:17:16;1.90;99.90
20380;DHT22;10349;48.666;8.948;2023-04-03T02:19:43;1.80;99.90
20380;DHT22;10349;48.666;8.948;2023-04-03T02:22:09;1.80;99.90
20380;DHT22;10349;48.666;8.948;2023-04-03T02:24:35;1.90;99.90
20380;DHT22;10349;48.666;8.948;2023-04-03T02:27:01;1.90;99.90
20380;DHT22;10349;48.666;8.948;2023-04-03T02:29:27;1.80;99.90
20380;DHT22;10349;48.666;8.948;2023-04-03T02:31:53;1.80;99.90
20380;DHT22;10349;48.666;8.948;2023-04-03T02:34:20;1.80;99.90
20380;DHT22;10349;48.666;8.948;2023-04-03T02:36:46;1.80;99.90
20380;DHT22;10349;48.666;8.948;2023-04-03T02:39:13;1.80;99.90
20380;DHT22;10349;48.666;8.948;2023-04-03T02:41:39;1.80;99.90
20380;DHT22;10349;48.666;8.948;2023-04-03T02:44:11;1.80;99.90
20380;DHT22;10349;48.666;8.948;2023-04-03T02:46:36;1.80;99.90
20380;DHT22;10349;48.666;8.948;2023-04-03T02:49:03;1.70;99.90
20380;DHT22;10349;48.666;8.948;2023-04-03T02:51:30;1.70;99.90
20380;DHT22;10349;48.666;8.948;2023-04-03T02:53:56;1.70;99.90
20380;DHT22;10349;48.666;8.948;2023-04-03T02:56:26;1.70;99.90
20380;DHT22;10349;48.666;8.948;2023-04-03T02:58:52;1.70;99.90
20380;DHT22;10349;48.666;8.948;2023-04-03T03:01:19;1.70;99.90
20380;DHT22;10349;48.666;8.948;2023-04-03T03:03:44;1.70;99.90
20380;DHT22;10349;48.666;8.948;2023-04-03T03:06:13;1.80;99.90
20380;DHT22;10349;48.666;8.948;2023-04-03T03:08:39;1.80;99.90
20380;DHT22;10349;48.666;8.948;2023-04-03T03:11:05;1.70;99.90
20380;DHT22;10349;48.666;8.948;2023-04-03T03:13:33;1.70;99.90
20380;DHT22;10349;48.666;8.948;2023-04-03T03:15:59;1.70;99.90
20380;DHT22;10349;48.666;8.948;2023-04-03T03:18:25;1.70;99.90
20380;DHT22;10349;48.666;8.948;2023-04-03T03:20:56;1.70;99.90
20380;DHT22;10349;48.666;8.948;2023-04-03T03:23:23;1.70;99.90
20380;DHT22;10349;48.666;8.948;2023-04-03T03:25:53;1.70;99.90
20380;DHT22;10349;48.666;8.948;2023-04-03T03:28:19;1.70;99.90
20380;DHT22;10349;48.666;8.948;2023-04-03T03:30:45;1.70;99.90
20380;DHT22;10349;48.666;8.948;2023-04-03T03:33:10;1.70;99.90
20380;DHT22;10349;48.666;8.948;2023-04-03T03:35:36;1.70;99.90
20380;DHT22;10349;48.666;8.948;2023-04-03T03:38:02;1.70;99.90
20380;DHT22;10349;48.666;8.948;2023-04-03T03:40:28;1.70;99.90
20380;DHT22;10349;48.666;8.948;2023-04-03T03:42:53;1.70;99.90
20380;DHT22;10349;48.666;8.948;2023-04-03T03:45:20;1.70;99.90
20380;DHT22;10349;48.666;8.948;2023-04-03T03:47:46;1.70;99.90
20380;DHT22;10349;48.666;8.948;2023-04-03T03:50:12;1.60;99.90
20380;DHT22;10349;48.666;8.948;2023-04-03T03:52:38;1.60;99.90
20380;DHT22;10349;48.666;8.948;2023-04-03T03:55:04;1.60;99.90
20380;DHT22;10349;48.666;8.948;2023-04-03T03:57:31;1.60;99.90
20380;DHT22;10349;48.666;8.948;2023-04-03T03:59:57;1.60;99.90
20380;DHT22;10349;48.666;8.948;2023-04-03T04:02:23;1.60;99.90
20380;DHT22;10349;48.666;8.948;2023-04-03T04:04:49;1.70;99.90
20380;DHT22;10349;48.666;8.948;2023-04-03T04:07:14;1.70;99.90
20380;DHT22;10349;48.666;8.948;2023-04-03T04:09:40;1.80;99.90
20380;DHT22;10349;48.666;8.948;2023-04-03T04:12:08;1.70;99.90
20380;DHT22;10349;48.666;8.948;2023-04-03T04:14:34;1.70;99.90
20380;DHT22;10349;48.666;8.948;2023-04-03T04:17:03;1.70;99.90
20380;DHT22;10349;48.666;8.948;2023-04-03T04:19:29;1.70;99.90
20380;DHT22;10349;48.666;8.948;2023-04-03T04:21:55;1.70;99.90
20380;DHT22;10349;48.666;8.948;2023-04-03T04:24:21;1.70;99.90
20380;DHT22;10349;48.666;8.948;2023-04-03T04:26:50;1.70;99.90
20380;DHT22;10349;48.666;8.948;2023-04-03T04:29:17;1.70;99.90
20380;DHT22;10349;48.666;8.948;2023-04-03T04:31:45;1.70;99.90
20380;DHT22;10349;48.666;8.948;2023-04-03T04:34:11;1.70;99.90
20380;DHT22;10349;48.666;8.948;2023-04-03T04:36:39;1.70;99.90
20380;DHT22;10349;48.666;8.948;2023-04-03T04:39:05;1.70;99.90
20380;DHT22;10349;48.666;8.948;2023-04-03T04:41:31;1.70;99.90
20380;DHT22;10349;48.666;8.948;2023-04-03T04:43:58;1.80;99.90
20380;DHT22;10349;48.666;8.948;2023-04-03T04:46:24;1.80;99.90
20380;DHT22;10349;48.666;8.948;2023-04-03T04:48:55;1.80;99.90
20380;DHT22;10349;48.666;8.948;2023-04-03T04:51:21;1.80;99.90
20380;DHT22;10349;48.666;8.948;2023-04-03T04:53:47;1.80;99.90
20380;DHT22;10349;48.666;8.948;2023-04-03T04:56:15;1.80;99.90
20380;DHT22;10349;48.666;8.948;2023-04-03T04:58:42;1.80;99.90
20380;DHT22;10349;48.666;8.948;2023-04-03T05:01:10;1.90;99.90
20380;DHT22;10349;48.666;8.948;2023-04-03T05:03:42;1.90;99.90
20380;DHT22;10349;48.666;8.948;2023-04-03T05:06:08;1.90;99.90
20380;DHT22;10349;48.666;8.948;2023-04-03T05:08:35;1.90;99.90
20380;DHT22;10349;48.666;8.948;2023-04-03T05:11:02;1.80;99.90
20380;DHT22;10349;48.666;8.948;2023-04-03T05:13:28;1.80;99.90
20380;DHT22;10349;48.666;8.948;2023-04-03T05:15:55;1.80;99.90
20380;DHT22;10349;48.666;8.948;2023-04-03T05:18:21;1.90;99.90
20380;DHT22;10349;48.666;8.948;2023-04-03T05:20:49;1.90;99.90
20380;DHT22;10349;48.666;8.948;2023-04-03T05:23:16;1.90;99.90
20380;DHT22;10349;48.666;8.948;2023-04-03T05:25:43;1.90;99.90
20380;DHT22;10349;48.666;8.948;2023-04-03T05:28:13;1.90;99.90
20380;DHT22;10349;48.666;8.948;2023-04-03T05:30:40;1.90;99.90
20380;DHT22;10349;48.666;8.948;2023-04-03T05:33:07;2.00;99.90
20380;DHT22;10349;48.666;8.948;2023-04-03T05:35:45;1.90;99.90
20380;DHT22;10349;48.666;8.948;2023-04-03T05:38:16;1.90;99.90
20380;DHT22;10349;48.666;8.948;2023-04-03T05:40:42;1.90;99.90
20380;DHT22;10349;48.666;8.948;2023-04-03T05:43:08;2.00;99.90
20380;DHT22;10349;48.666;8.948;2023-04-03T05:45:37;2.00;99.90
20380;DHT22;10349;48.666;8.948;2023-04-03T05:48:03;2.10;99.90
20380;DHT22;10349;48.666;8.948;2023-04-03T05:50:30;2.10;99.90
20380;DHT22;10349;48.666;8.948;2023-04-03T05:52:59;2.10;99.90
20380;DHT22;10349;48.666;8.948;2023-04-03T05:55:28;2.10;99.90
20380;DHT22;10349;48.666;8.948;2023-04-03T05:57:55;2.20;99.90
20380;DHT22;10349;48.666;8.948;2023-04-03T06:00:22;2.20;99.90
20380;DHT22;10349;48.666;8.948;2023-04-03T06:02:56;2.30;99.90
20380;DHT22;10349;48.666;8.948;2023-04-03T06:05:24;2.30;99.90
20380;DHT22;10349;48.666;8.948;2023-04-03T06:07:50;2.30;99.90
20380;DHT22;10349;48.666;8.948;2023-04-03T06:10:16;2.40;99.90
20380;DHT22;10349;48.666;8.948;2023-04-03T06:12:43;2.40;99.90
20380;DHT22;10349;48.666;8.948;2023-04-03T06:15:11;2.40;99.90
20380;DHT22;10349;48.666;8.948;2023-04-03T06:17:39;2.40;99.90
20380;DHT22;10349;48.666;8.948;2023-04-03T06:20:06;2.40;99.90
20380;DHT22;10349;48.666;8.948;2023-04-03T06:22:31;2.40;99.90
20380;DHT22;10349;48.666;8.948;2023-04-03T06:24:57;2.40;99.90
20380;DHT22;10349;48.666;8.948;2023-04-03T06:27:23;2.40;99.90
20380;DHT22;10349;48.666;8.948;2023-04-03T06:29:49;2.30;99.90
20380;DHT22;10349;48.666;8.948;2023-04-03T06:32:15;2.20;99.90
20380;DHT22;10349;48.666;8.948;2023-04-03T06:34:41;2.30;99.90
20380;DHT22;10349;48.666;8.948;2023-04-03T06:37:14;2.30;99.90
20380;DHT22;10349;48.666;8.948;2023-04-03T06:39:40;2.30;99.90
20380;DHT22;10349;48.666;8.948;2023-04-03T06:42:05;2.30;99.90
20380;DHT22;10349;48.666;8.948;2023-04-03T06:44:37;2.30;99.90
20380;DHT22;10349;48.666;8.948;2023-04-03T06:47:03;2.30;99.90
20380;DHT22;10349;48.666;8.948;2023-04-03T06:49:29;2.40;99.90
20380;DHT22;10349;48.666;8.948;2023-04-03T06:51:55;2.40;99.90
20380;DHT22;10349;48.666;8.948;2023-04-03T06:54:22;2.50;99.90
20380;DHT22;10349;48.666;8.948;2023-04-03T06:56:48;2.60;99.90
20380;DHT22;10349;48.666;8.948;2023-04-03T06:59:15;2.70;99.90
20380;DHT22;10349;48.666;8.948;2023-04-03T07:01:41;2.90;99.90
20380;DHT22;10349;48.666;8.948;2023-04-03T07:04:07;2.90;99.90
20380;DHT22;10349;48.666;8.948;2023-04-03T07:06:34;3.00;99.90
20380;DHT22;10349;48.666;8.948;2023-04-03T07:09:00;3.00;99.90
20380;DHT22;10349;48.666;8.948;2023-04-03T07:11:26;3.00;99.90
20380;DHT22;10349;48.666;8.948;2023-04-03T07:13:52;3.00;99.90
20380;DHT22;10349;48.666;8.948;2023-04-03T07:16:19;3.00;99.90
20380;DHT22;10349;48.666;8.948;2023-04-03T07:18:46;3.10;99.90
20380;DHT22;10349;48.666;8.948;2023-04-03T07:21:12;3.20;99.90
20380;DHT22;10349;48.666;8.948;2023-04-03T07:23:38;3.10;99.90
20380;DHT22;10349;48.666;8.948;2023-04-03T07:26:04;3.10;99.90
20380;DHT22;10349;48.666;8.948;2023-04-03T07:28:30;3.00;99.90
20380;DHT22;10349;48.666;8.948;2023-04-03T07:31:01;3.00;99.90
20380;DHT22;10349;48.666;8.948;2023-04-03T07:33:28;3.00;99.90
20380;DHT22;10349;48.666;8.948;2023-04-03T07:35:53;3.10;99.90
20380;DHT22;10349;48.666;8.948;2023-04-03T07:38:21;3.20;99.90
20380;DHT22;10349;48.666;8.948;2023-04-03T07:40:48;3.20;99.90
20380;DHT22;10349;48.666;8.948;2023-04-03T07:43:16;3.30;99.90
20380;DHT22;10349;48.666;8.948;2023-04-03T07:45:42;3.30;99.90
20380;DHT22;10349;48.666;8.948;2023-04-03T07:48:10;3.30;99.90
20380;DHT22;10349;48.666;8.948;2023-04-03T07:50:36;3.20;99.90
20380;DHT22;10349;48.666;8.948;2023-04-03T07:53:03;3.30;99.90
20380;DHT22;10349;48.666;8.948;2023-04-03T07:55:31;3.30;99.90
20380;DHT22;10349;48.666;8.948;2023-04-03T07:57:57;3.30;99.90
20380;DHT22;10349;48.666;8.948;2023-04-03T08:00:23;3.30;99.90
20380;DHT22;10349;48.666;8.948;2023-04-03T08:02:50;3.40;99.90
20380;DHT22;10349;48.666;8.948;2023-04-03T08:05:20;3.40;99.90
20380;DHT22;10349;48.666;8.948;2023-04-03T08:07:47;3.40;99.90
20380;DHT22;10349;48.666;8.948;2023-04-03T08:10:14;3.50;99.90
20380;DHT22;10349;48.666;8.948;2023-04-03T08:12:40;3.50;99.90
20380;DHT22;10349;48.666;8.948;2023-04-03T08:15:06;3.50;99.90
20380;DHT22;10349;48.666;8.948;2023-04-03T08:17:34;3.60;99.90
20380;DHT22;10349;48.666;8.948;2023-04-03T08:20:02;3.70;99.90
20380;DHT22;10349;48.666;8.948;2023-04-03T08:22:29;3.70;99.90
20380;DHT22;10349;48.666;8.948;2023-04-03T08:24:55;3.70;99.90
20380;DHT22;10349;48.666;8.948;2023-04-03T08:27:20;3.60;99.90
20380;DHT22;10349;48.666;8.948;2023-04-03T08:29:46;3.50;99.90
20380;DHT22;10349;48.666;8.948;2023-04-03T08:32:12;3.50;99.90
20380;DHT22;10349;48.666;8.948;2023-04-03T08:34:37;3.60;99.90
20380;DHT22;10349;48.666;8.948;2023-04-03T08:37:06;3.60;99.90
20380;DHT22;10349;48.666;8.948;2023-04-03T08:39:31;3.60;99.90
20380;DHT22;10349;48.666;8.948;2023-04-03T08:41:59;3.60;99.90
20380;DHT22;10349;48.666;8.948;2023-04-03T08:44:48;3.70;99.90
20380;DHT22;10349;48.666;8.948;2023-04-03T08:49:52;3.70;99.90
20380;DHT22;10349;48.666;8.948;2023-04-03T08:52:27;3.70;99.90
20380;DHT22;10349;48.666;8.948;2023-04-03T08:54:59;3.70;99.90
20380;DHT22;10349;48.666;8.948;2023-04-03T08:57:35;3.80;99.90
20380;DHT22;10349;48.666;8.948;2023-04-03T09:00:13;3.80;99.90
20380;DHT22;10349;48.666;8.948;2023-04-03T09:02:44;3.90;99.90
20380;DHT22;10349;48.666;8.948;2023-04-03T09:06:00;3.90;99.90
20380;DHT22;10349;48.666;8.948;2023-04-03T09:08:05;3.90;99.90
20380;DHT22;10349;48.666;8.948;2023-04-03T09:10:34;4.00;99.90
20380;DHT22;10349;48.666;8.948;2023-04-03T09:13:30;4.10;99.90
20380;DHT22;10349;48.666;8.948;2023-04-03T09:16:02;4.10;99.90
20380;DHT22;10349;48.666;8.948;2023-04-03T09:18:33;3.90;99.90
20380;DHT22;10349;48.666;8.948;2023-04-03T09:21:40;4.00;99.90
20380;DHT22;10349;48.666;8.948;2023-04-03T09:24:11;4.20;99.90
20380;DHT22;10349;48.666;8.948;2023-04-03T09:26:57;4.10;99.90
20380;DHT22;10349;48.666;8.948;2023-04-03T09:29:26;4.20;99.90
20380;DHT22;10349;48.666;8.948;2023-04-03T09:34:47;4.30;99.90
20380;DHT22;10349;48.666;8.948;2023-04-03T09:37:34;4.20;99.90
20380;DHT22;10349;48.666;8.948;2023-04-03T09:40:03;4.10;99.90
20380;DHT22;10349;48.666;8.948;2023-04-03T09:42:30;4.00;99.90
20380;DHT22;10349;48.666;8.948;2023-04-03T09:45:03;3.90;99.90
20380;DHT22;10349;48.666;8.948;2023-04-03T09:47:34;3.90;99.90
20380;DHT22;10349;48.666;8.948;2023-04-03T09:52:44;4.00;99.90
20380;DHT22;10349;48.666;8.948;2023-04-03T09:55:41;4.00;99.90
20380;DHT22;10349;48.666;8.948;2023-04-03T09:58:27;4.00;99.90
20380;DHT22;10349;48.666;8.948;2023-04-03T10:00:56;4.00;99.90
20380;DHT22;10349;48.666;8.948;2023-04-03T10:03:31;4.10;99.90
20380;DHT22;10349;48.666;8.948;2023-04-03T10:05:58;4.00;99.90
20380;DHT22;10349;48.666;8.948;2023-04-03T10:08:28;4.00;99.90
20380;DHT22;10349;48.666;8.948;2023-04-03T10:11:14;4.00;99.90
20380;DHT22;10349;48.666;8.948;2023-04-03T10:13:58;4.00;99.90
20380;DHT22;10349;48.666;8.948;2023-04-03T10:17:13;4.10;99.90
20380;DHT22;10349;48.666;8.948;2023-04-03T10:24:54;4.20;99.90
20380;DHT22;10349;48.666;8.948;2023-04-03T10:27:48;4.20;99.90
20380;DHT22;10349;48.666;8.948;2023-04-03T10:30:34;4.30;99.90
20380;DHT22;10349;48.666;8.948;2023-04-03T10:38:48;4.50;99.90
20380;DHT22;10349;48.666;8.948;2023-04-03T10:47:44;4.90;99.90
20380;DHT22;10349;48.666;8.948;2023-04-03T10:50:38;5.00;99.90
20380;DHT22;10349;48.666;8.948;2023-04-03T10:53:31;5.10;99.90
20380;DHT22;10349;48.666;8.948;2023-04-03T11:01:29;4.90;99.90
20380;DHT22;10349;48.666;8.948;2023-04-03T11:03:59;4.80;99.90
20380;DHT22;10349;48.666;8.948;2023-04-03T11:06:50;4.80;99.90
20380;DHT22;10349;48.666;8.948;2023-04-03T11:11:47;4.90;99.90
20380;DHT22;10349;48.666;8.948;2023-04-03T11:16:48;4.90;99.90
20380;DHT22;10349;48.666;8.948;2023-04-03T11:19:32;4.80;99.90
20380;DHT22;10349;48.666;8.948;2023-04-03T11:22:12;4.70;99.90
20380;DHT22;10349;48.666;8.948;2023-04-03T11:24:43;4.60;99.90
20380;DHT22;10349;48.666;8.948;2023-04-03T11:27:19;4.60;99.90
20380;DHT22;10349;48.666;8.948;2023-04-03T11:29:48;4.70;99.90
20380;DHT22;10349;48.666;8.948;2023-04-03T11:34:44;4.80;99.90
20380;DHT22;10349;48.666;8.948;2023-04-03T11:40:05;4.70;99.90
20380;DHT22;10349;48.666;8.948;2023-04-03T11:42:42;4.70;99.90
20380;DHT22;10349;48.666;8.948;2023-04-03T11:47:53;4.70;99.90
20380;DHT22;10349;48.666;8.948;2023-04-03T11:50:41;4.60;99.90
20380;DHT22;10349;48.666;8.948;2023-04-03T12:19:02;4.60;99.90
20380;DHT22;10349;48.666;8.948;2023-04-03T12:46:07;4.80;99.90
20380;DHT22;10349;48.666;8.948;2023-04-03T12:48:58;4.80;99.90
20380;DHT22;10349;48.666;8.948;2023-04-03T12:51:39;4.70;99.90
20380;DHT22;10349;48.666;8.948;2023-04-03T12:54:18;4.80;99.90
20380;DHT22;10349;48.666;8.948;2023-04-03T12:56:45;4.70;99.90
20380;DHT22;10349;48.666;8.948;2023-04-03T12:59:23;4.70;99.90
20380;DHT22;10349;48.666;8.948;2023-04-03T13:01:58;4.70;99.90
20380;DHT22;10349;48.666;8.948;2023-04-03T13:04:26;4.80;99.90
20380;DHT22;10349;48.666;8.948;2023-04-03T13:06:53;4.90;99.90
20380;DHT22;10349;48.666;8.948;2023-04-03T13:11:49;5.00;99.90
20380;DHT22;10349;48.666;8.948;2023-04-03T13:14:23;4.90;99.90
20380;DHT22;10349;48.666;8.948;2023-04-03T13:19:20;5.00;99.90
20380;DHT22;10349;48.666;8.948;2023-04-03T13:21:47;5.00;99.90
20380;DHT22;10349;48.666;8.948;2023-04-03T13:24:15;5.20;99.90
20380;DHT22;10349;48.666;8.948;2023-04-03T13:26:42;5.30;99.90
20380;DHT22;10349;48.666;8.948;2023-04-03T13:29:26;5.30;99.90
20380;DHT22;10349;48.666;8.948;2023-04-03T13:31:55;5.20;99.90
20380;DHT22;10349;48.666;8.948;2023-04-03T13:34:23;5.10;99.90
20380;DHT22;10349;48.666;8.948;2023-04-03T13:37:01;5.10;99.90
20380;DHT22;10349;48.666;8.948;2023-04-03T13:39:34;5.00;99.90
20380;DHT22;10349;48.666;8.948;2023-04-03T13:42:14;5.00;99.90
20380;DHT22;10349;48.666;8.948;2023-04-03T13:44:41;4.90;99.90
20380;DHT22;10349;48.666;8.948;2023-04-03T13:47:20;4.90;99.90
20380;DHT22;10349;48.666;8.948;2023-04-03T13:52:51;5.00;99.90
20380;DHT22;10349;48.666;8.948;2023-04-03T13:55:26;5.10;99.90
20380;DHT22;10349;48.666;8.948;2023-04-03T13:57:56;5.10;99.90
20380;DHT22;10349;48.666;8.948;2023-04-03T14:03:13;5.40;99.90
20380;DHT22;10349;48.666;8.948;2023-04-03T14:05:39;5.40;99.90
20380;DHT22;10349;48.666;8.948;2023-04-03T14:08:05;5.40;99.90
20380;DHT22;10349;48.666;8.948;2023-04-03T14:10:32;5.50;99.90
20380;DHT22;10349;48.666;8.948;2023-04-03T14:12:58;5.60;99.90
20380;DHT22;10349;48.666;8.948;2023-04-03T14:15:27;5.60;99.90
20380;DHT22;10349;48.666;8.948;2023-04-03T14:17:54;5.50;99.90
20380;DHT22;10349;48.666;8.948;2023-04-03T14:20:25;5.50;99.90
20380;DHT22;10349;48.666;8.948;2023-04-03T14:22:51;5.30;99.90
20380;DHT22;10349;48.666;8.948;2023-04-03T14:25:18;5.10;99.90
20380;DHT22;10349;48.666;8.948;2023-04-03T14:27:47;5.00;99.90
20380;DHT22;10349;48.666;8.948;2023-04-03T14:30:28;5.10;99.90
20380;DHT22;10349;48.666;8.948;2023-04-03T14:32:55;5.20;99.90
20380;DHT22;10349;48.666;8.948;2023-04-03T14:35:22;5.20;99.90
20380;DHT22;10349;48.666;8.948;2023-04-03T14:37:48;5.30;99.90
20380;DHT22;10349;48.666;8.948;2023-04-03T14:40:22;5.40;99.90
20380;DHT22;10349;48.666;8.948;2023-04-03T14:42:49;5.40;99.90
20380;DHT22;10349;48.666;8.948;2023-04-03T14:45:15;5.40;99.90
20380;DHT22;10349;48.666;8.948;2023-04-03T14:47:47;5.50;99.90
20380;DHT22;10349;48.666;8.948;2023-04-03T14:50:19;5.50;99.90
20380;DHT22;10349;48.666;8.948;2023-04-03T14:52:48;5.50;99.90
20380;DHT22;10349;48.666;8.948;2023-04-03T14:55:19;5.40;99.90
20380;DHT22;10349;48.666;8.948;2023-04-03T14:57:45;5.30;99.90
20380;DHT22;10349;48.666;8.948;2023-04-03T15:00:17;5.30;99.90
20380;DHT22;10349;48.666;8.948;2023-04-03T15:02:43;5.10;99.90
20380;DHT22;10349;48.666;8.948;2023-04-03T15:05:11;4.90;99.90
20380;DHT22;10349;48.666;8.948;2023-04-03T15:07:47;4.90;99.90
20380;DHT22;10349;48.666;8.948;2023-04-03T15:12:39;4.90;99.90
20380;DHT22;10349;48.666;8.948;2023-04-03T15:15:06;4.90;99.90
20380;DHT22;10349;48.666;8.948;2023-04-03T15:17:32;5.00;99.90
20380;DHT22;10349;48.666;8.948;2023-04-03T15:19:59;5.00;99.90
20380;DHT22;10349;48.666;8.948;2023-04-03T15:22:25;5.00;99.90
20380;DHT22;10349;48.666;8.948;2023-04-03T15:24:51;5.00;99.90
20380;DHT22;10349;48.666;8.948;2023-04-03T15:27:16;5.00;99.90
20380;DHT22;10349;48.666;8.948;2023-04-03T15:29:43;5.00;99.90
20380;DHT22;10349;48.666;8.948;2023-04-03T15:32:09;5.10;99.90
20380;DHT22;10349;48.666;8.948;2023-04-03T15:34:36;5.20;99.90
20380;DHT22;10349;48.666;8.948;2023-04-03T15:37:02;5.40;99.90
20380;DHT22;10349;48.666;8.948;2023-04-03T15:39:28;5.60;99.90
20380;DHT22;10349;48.666;8.948;2023-04-03T15:41:54;5.70;99.90
20380;DHT22;10349;48.666;8.948;2023-04-03T15:44:21;5.80;99.90
20380;DHT22;10349;48.666;8.948;2023-04-03T15:46:48;5.70;99.90
20380;DHT22;10349;48.666;8.948;2023-04-03T15:49:19;5.60;99.90
20380;DHT22;10349;48.666;8.948;2023-04-03T15:51:46;5.50;99.90
20380;DHT22;10349;48.666;8.948;2023-04-03T15:54:12;5.50;99.90
20380;DHT22;10349;48.666;8.948;2023-04-03T15:56:38;5.40;99.90
20380;DHT22;10349;48.666;8.948;2023-04-03T15:59:03;5.40;99.90
20380;DHT22;10349;48.666;8.948;2023-04-03T16:01:31;5.40;99.90
20380;DHT22;10349;48.666;8.948;2023-04-03T16:03:56;5.50;99.90
20380;DHT22;10349;48.666;8.948;2023-04-03T16:06:25;5.50;99.90
20380;DHT22;10349;48.666;8.948;2023-04-03T16:08:51;5.50;99.90
20380;DHT22;10349;48.666;8.948;2023-04-03T16:11:17;5.50;99.90
20380;DHT22;10349;48.666;8.948;2023-04-03T16:13:43;5.40;99.90
20380;DHT22;10349;48.666;8.948;2023-04-03T16:16:09;5.40;99.90
20380;DHT22;10349;48.666;8.948;2023-04-03T16:18:35;5.30;99.90
20380;DHT22;10349;48.666;8.948;2023-04-03T16:21:01;5.20;99.90
20380;DHT22;10349;48.666;8.948;2023-04-03T16:23:27;5.10;99.90
20380;DHT22;10349;48.666;8.948;2023-04-03T16:25:53;5.00;99.90
20380;DHT22;10349;48.666;8.948;2023-04-03T16:28:19;5.00;99.90
20380;DHT22;10349;48.666;8.948;2023-04-03T16:30:46;4.90;99.90
20380;DHT22;10349;48.666;8.948;2023-04-03T16:33:13;4.90;99.90
20380;DHT22;10349;48.666;8.948;2023-04-03T16:35:39;4.90;99.90
20380;DHT22;10349;48.666;8.948;2023-04-03T16:38:07;4.90;99.90
20380;DHT22;10349;48.666;8.948;2023-04-03T16:40:33;5.00;99.90
20380;DHT22;10349;48.666;8.948;2023-04-03T16:43:01;4.80;99.90
20380;DHT22;10349;48.666;8.948;2023-04-03T16:45:26;4.80;99.90
20380;DHT22;10349;48.666;8.948;2023-04-03T16:47:52;4.70;99.90
20380;DHT22;10349;48.666;8.948;2023-04-03T16:50:18;4.70;99.90
20380;DHT22;10349;48.666;8.948;2023-04-03T16:52:45;4.80;99.90
20380;DHT22;10349;48.666;8.948;2023-04-03T16:55:12;4.80;99.90
20380;DHT22;10349;48.666;8.948;2023-04-03T16:57:37;4.80;99.90
20380;DHT22;10349;48.666;8.948;2023-04-03T17:00:04;4.80;99.90
20380;DHT22;10349;48.666;8.948;2023-04-03T17:02:30;4.80;99.90
20380;DHT22;10349;48.666;8.948;2023-04-03T17:04:56;4.80;99.90
20380;DHT22;10349;48.666;8.948;2023-04-03T17:07:23;4.80;99.90
20380;DHT22;10349;48.666;8.948;2023-04-03T17:09:50;4.80;99.90
20380;DHT22;10349;48.666;8.948;2023-04-03T17:12:16;4.80;99.90
20380;DHT22;10349;48.666;8.948;2023-04-03T17:14:41;4.70;99.90
20380;DHT22;10349;48.666;8.948;2023-04-03T17:17:08;4.70;99.90
20380;DHT22;10349;48.666;8.948;2023-04-03T17:19:35;4.70;99.90
20380;DHT22;10349;48.666;8.948;2023-04-03T17:22:03;4.50;99.90
20380;DHT22;10349;48.666;8.948;2023-04-03T17:24:30;4.40;99.90
20380;DHT22;10349;48.666;8.948;2023-04-03T17:26:58;4.40;99.90
20380;DHT22;10349;48.666;8.948;2023-04-03T17:29:23;4.40;99.90
20380;DHT22;10349;48.666;8.948;2023-04-03T17:31:49;4.30;99.90
20380;DHT22;10349;48.666;8.948;2023-04-03T17:34:15;4.30;99.90
20380;DHT22;10349;48.666;8.948;2023-04-03T17:36:42;4.30;99.90
20380;DHT22;10349;48.666;8.948;2023-04-03T17:39:08;4.20;99.90
20380;DHT22;10349;48.666;8.948;2023-04-03T17:41:33;4.20;99.90
20380;DHT22;10349;48.666;8.948;2023-04-03T17:44:01;4.20;99.90
20380;DHT22;10349;48.666;8.948;2023-04-03T17:46:27;4.20;99.90
20380;DHT22;10349;48.666;8.948;2023-04-03T17:48:56;4.20;99.90
20380;DHT22;10349;48.666;8.948;2023-04-03T17:51:25;4.20;99.90